Time;durP1;ratioP1;P1;durP2;ratioP2;P2;SDS_P1;SDS_P2;PMS_P1;PMS_P2;Temp;Humidity;BMP_temperature;BMP_pressure;BME280_temperature;BME280_humidity;BME280_pressure;Samples;Min_cycle;Max_cycle;Signal;HPM_P1;HPM_P2
2020/12/23 00:00:07;;;;;;;9.50;1.70;;;6.40;99.90;;;;;;4998105;28;20184;-70
2020/12/23 00:02:33;;;;;;;8.00;1.80;;;6.40;99.90;;;;;;4999882;28;20183;-70
2020/12/23 00:04:59;;;;;;;4.37;1.80;;;6.40;99.90;;;;;;5004720;28;20713;-70
2020/12/23 00:07:24;;;;;;;8.97;1.53;;;6.40;99.90;;;;;;5000647;28;20289;-71
2020/12/23 00:09:50;;;;;;;7.10;2.10;;;6.40;99.90;;;;;;4999126;28;20190;-70
2020/12/23 00:12:15;;;;;;;5.90;3.17;;;6.40;99.90;;;;;;4995754;28;20708;-69
2020/12/23 00:14:41;;;;;;;5.23;1.90;;;6.40;99.90;;;;;;5002206;28;20207;-70
2020/12/23 00:17:06;;;;;;;9.10;2.27;;;6.40;99.90;;;;;;5004929;28;20290;-71
2020/12/23 00:19:35;;;;;;;5.47;1.50;;;6.40;99.90;;;;;;4998473;28;20190;-70
2020/12/23 00:22:01;;;;;;;5.93;1.53;;;6.40;99.90;;;;;;4999651;28;20242;-70
2020/12/23 00:24:27;;;;;;;6.87;1.77;;;6.40;99.90;;;;;;5005365;28;20576;-70
2020/12/23 00:26:52;;;;;;;5.63;1.93;;;6.40;99.90;;;;;;4989377;28;20273;-71
2020/12/23 00:29:18;;;;;;;5.10;1.60;;;6.40;99.90;;;;;;4998091;28;20210;-71
2020/12/23 00:31:43;;;;;;;7.53;1.80;;;6.40;99.90;;;;;;5004653;28;20194;-68
2020/12/23 00:34:09;;;;;;;9.57;2.20;;;6.30;99.90;;;;;;4998507;28;20194;-71
2020/12/23 00:36:34;;;;;;;5.33;1.73;;;6.30;99.90;;;;;;4999495;28;20691;-72
2020/12/23 00:39:00;;;;;;;8.37;1.83;;;6.30;99.90;;;;;;5005388;28;20254;-70
2020/12/23 00:41:26;;;;;;;7.57;2.00;;;6.20;99.90;;;;;;4997726;28;20658;-69
2020/12/23 00:43:51;;;;;;;8.97;2.03;;;6.20;99.90;;;;;;5000725;28;20260;-69
2020/12/23 00:46:16;;;;;;;4.00;1.70;;;6.20;99.90;;;;;;5005349;28;20190;-70
2020/12/23 00:48:43;;;;;;;6.33;1.60;;;6.10;99.90;;;;;;4992579;28;20176;-69
2020/12/23 00:51:10;;;;;;;7.40;1.87;;;6.10;99.90;;;;;;5002570;28;20192;-70
2020/12/23 00:53:37;;;;;;;9.90;2.20;;;6.10;99.90;;;;;;4997241;28;20286;-70
2020/12/23 00:56:02;;;;;;;9.97;2.00;;;6.10;99.90;;;;;;5002473;28;20183;-69
2020/12/23 00:58:28;;;;;;;6.20;1.77;;;6.00;99.90;;;;;;5003692;28;20253;-69
2020/12/23 01:00:53;;;;;;;7.47;1.87;;;6.00;99.90;;;;;;4997405;28;20191;-70
2020/12/23 01:03:19;;;;;;;9.33;2.27;;;6.00;99.90;;;;;;5002747;28;20188;-70
2020/12/23 01:05:44;;;;;;;9.70;1.83;;;5.90;99.90;;;;;;5002104;28;20194;-70
2020/12/23 01:08:10;;;;;;;9.53;2.30;;;5.90;99.90;;;;;;4998486;28;20210;-69
2020/12/23 01:10:35;;;;;;;7.23;2.13;;;5.90;99.90;;;;;;5004131;28;20695;-70
2020/12/23 01:13:00;;;;;;;9.80;2.33;;;5.90;99.90;;;;;;5002830;28;20190;-69
2020/12/23 01:15:26;;;;;;;8.07;2.00;;;5.80;99.90;;;;;;5006307;28;20584;-69
2020/12/23 01:17:51;;;;;;;7.27;2.10;;;5.80;99.90;;;;;;4998049;28;20199;-69
2020/12/23 01:20:17;;;;;;;8.37;2.43;;;5.80;99.90;;;;;;4998128;28;20609;-69
2020/12/23 01:22:42;;;;;;;6.47;2.00;;;5.90;99.90;;;;;;5003826;28;20595;-69
2020/12/23 01:25:08;;;;;;;8.87;2.53;;;5.80;99.90;;;;;;4997751;28;20191;-69
2020/12/23 01:27:33;;;;;;;10.13;2.30;;;5.80;99.90;;;;;;4999095;28;20617;-69
2020/12/23 01:29:59;;;;;;;13.60;2.70;;;5.80;99.90;;;;;;5004308;28;20210;-70
2020/12/23 01:32:24;;;;;;;9.67;2.40;;;5.80;99.90;;;;;;4997789;28;20458;-69
2020/12/23 01:34:50;;;;;;;9.37;2.63;;;5.80;99.90;;;;;;4998674;28;20224;-69
2020/12/23 01:37:15;;;;;;;9.13;2.17;;;5.70;99.90;;;;;;5007585;28;20194;-69
2020/12/23 01:39:41;;;;;;;7.53;2.10;;;5.70;99.90;;;;;;5001589;28;20345;-69
2020/12/23 01:42:07;;;;;;;13.33;2.73;;;5.70;99.90;;;;;;5001736;28;20176;-69
2020/12/23 01:44:36;;;;;;;4.93;1.80;;;5.60;99.90;;;;;;5008403;28;20253;-69
2020/12/23 01:47:06;;;;;;;10.73;2.43;;;5.60;99.90;;;;;;5003570;28;20522;-69
2020/12/23 01:49:32;;;;;;;10.83;1.87;;;5.60;99.90;;;;;;5007723;28;20198;-70
2020/12/23 01:51:58;;;;;;;7.00;1.90;;;5.60;99.90;;;;;;5000161;28;20225;-70
2020/12/23 01:54:24;;;;;;;7.30;1.80;;;5.60;99.90;;;;;;4993817;28;20707;-69
2020/12/23 01:56:53;;;;;;;7.20;2.00;;;5.60;99.90;;;;;;4981842;28;20218;-68
2020/12/23 01:59:19;;;;;;;10.67;2.00;;;5.60;99.90;;;;;;4975228;28;20223;-69
2020/12/23 02:01:47;;;;;;;8.83;1.87;;;5.60;99.90;;;;;;4974182;28;20637;-69
2020/12/23 02:04:14;;;;;;;6.37;1.53;;;5.60;99.90;;;;;;4976313;28;20184;-69
2020/12/23 02:06:40;;;;;;;10.13;2.10;;;5.60;99.90;;;;;;4993932;28;20622;-69
2020/12/23 02:09:07;;;;;;;8.97;1.80;;;5.60;99.90;;;;;;4994240;28;20255;-70
2020/12/23 02:11:32;;;;;;;11.00;3.00;;;5.60;99.90;;;;;;4993781;28;20217;-70
2020/12/23 02:13:58;;;;;;;11.87;2.40;;;5.60;99.90;;;;;;4994094;28;20612;-70
2020/12/23 02:16:23;;;;;;;9.33;2.20;;;5.60;99.90;;;;;;4994093;28;20175;-69
2020/12/23 02:18:49;;;;;;;5.93;1.80;;;5.60;99.90;;;;;;4993837;28;20255;-70
2020/12/23 02:21:16;;;;;;;9.23;2.17;;;5.60;99.90;;;;;;4993174;28;20640;-70
2020/12/23 02:27:17;;;;;;;14.07;2.30;;;5.60;99.90;;;;;;4991875;28;20258;-70
2020/12/23 02:29:44;;;;;;;7.40;2.10;;;5.60;99.90;;;;;;4996099;28;20680;-70
2020/12/23 02:32:10;;;;;;;9.33;1.80;;;5.50;99.90;;;;;;5001493;28;20178;-70
2020/12/23 02:34:36;;;;;;;10.23;2.63;;;5.50;99.90;;;;;;5002197;28;20203;-70
2020/12/23 02:37:03;;;;;;;10.00;2.33;;;5.40;99.90;;;;;;5001381;28;20196;-70
2020/12/23 02:39:28;;;;;;;7.10;1.93;;;5.30;99.90;;;;;;5007283;28;20175;-71
2020/12/23 02:41:59;;;;;;;12.03;2.37;;;5.30;99.90;;;;;;5003525;28;20257;-70
2020/12/23 02:44:24;;;;;;;9.70;2.27;;;5.20;99.90;;;;;;5007742;28;20715;-70
2020/12/23 02:47:02;;;;;;;10.43;2.33;;;5.20;99.90;;;;;;5000142;28;20211;-70
2020/12/23 02:49:29;;;;;;;6.20;2.10;;;5.10;99.90;;;;;;5000352;28;20551;-70
2020/12/23 02:51:56;;;;;;;10.77;2.20;;;5.10;99.90;;;;;;5005549;28;20249;-71
2020/12/23 02:54:22;;;;;;;5.97;2.00;;;5.00;99.90;;;;;;5000726;28;20257;-70
2020/12/23 02:56:47;;;;;;;4.53;1.60;;;5.00;99.90;;;;;;5001555;28;20222;-70
2020/12/23 02:59:13;;;;;;;4.57;2.00;;;5.00;99.90;;;;;;5007169;28;20647;-70
2020/12/23 03:01:39;;;;;;;10.53;2.57;;;4.90;99.90;;;;;;5001007;28;20329;-70
2020/12/23 03:04:05;;;;;;;7.90;2.07;;;4.90;99.90;;;;;;5004326;28;20176;-70
2020/12/23 03:06:32;;;;;;;9.13;2.27;;;4.80;99.90;;;;;;5007474;28;20279;-69
2020/12/23 03:08:58;;;;;;;6.43;2.93;;;4.80;99.90;;;;;;5002608;28;20254;-70
2020/12/23 03:11:23;;;;;;;10.60;2.40;;;4.80;99.90;;;;;;4999293;28;20498;-69
2020/12/23 03:13:49;;;;;;;10.60;2.60;;;4.70;99.90;;;;;;5006247;28;20200;-69
2020/12/23 03:16:15;;;;;;;11.50;2.47;;;4.70;99.90;;;;;;5002846;28;20175;-70
2020/12/23 03:18:40;;;;;;;10.57;2.37;;;4.60;99.90;;;;;;4998816;28;20175;-69
2020/12/23 03:21:07;;;;;;;5.57;1.97;;;4.60;99.90;;;;;;5004545;28;20180;-68
2020/12/23 03:23:33;;;;;;;9.33;2.43;;;4.50;99.90;;;;;;5002616;28;20201;-69
2020/12/23 03:25:58;;;;;;;6.40;2.00;;;4.50;99.90;;;;;;4997818;28;20664;-70
2020/12/23 03:28:24;;;;;;;7.67;2.33;;;4.50;99.90;;;;;;5000926;28;20223;-69
2020/12/23 03:30:50;;;;;;;7.93;2.60;;;4.40;99.90;;;;;;4993122;28;20532;-69
2020/12/23 03:33:15;;;;;;;6.90;2.73;;;4.40;99.90;;;;;;4994378;28;20187;-69
2020/12/23 03:35:41;;;;;;;10.83;2.60;;;4.40;99.90;;;;;;4992938;28;20250;-70
2020/12/23 03:38:06;;;;;;;4.57;2.20;;;4.30;99.90;;;;;;4992788;28;20203;-69
2020/12/23 03:40:32;;;;;;;8.60;2.27;;;4.30;99.90;;;;;;4995848;28;20611;-70
2020/12/23 03:42:57;;;;;;;9.53;2.20;;;4.30;99.90;;;;;;4997474;28;20176;-70
2020/12/23 03:45:23;;;;;;;4.30;2.07;;;4.30;99.90;;;;;;4991116;28;20271;-70
2020/12/23 03:47:48;;;;;;;12.13;2.73;;;4.30;99.90;;;;;;4992686;28;20231;-69
2020/12/23 03:50:14;;;;;;;8.53;2.10;;;4.30;99.90;;;;;;4993050;28;20168;-69
2020/12/23 03:52:39;;;;;;;8.70;2.63;;;4.30;99.90;;;;;;4991882;28;20164;-68
2020/12/23 03:55:05;;;;;;;11.50;2.40;;;4.30;99.90;;;;;;4992266;28;20368;-68
2020/12/23 03:57:30;;;;;;;6.83;2.23;;;4.30;99.90;;;;;;4992033;28;20192;-69
2020/12/23 03:59:56;;;;;;;9.03;2.20;;;4.30;99.90;;;;;;4992278;28;20250;-69
2020/12/23 04:02:21;;;;;;;7.27;1.87;;;4.30;99.90;;;;;;4991573;28;20599;-68
2020/12/23 04:04:47;;;;;;;10.37;2.53;;;4.30;99.90;;;;;;4989329;28;20218;-69
2020/12/23 04:07:12;;;;;;;8.13;2.10;;;4.30;99.90;;;;;;5005615;28;20687;-69
2020/12/23 04:09:38;;;;;;;11.87;2.60;;;4.30;99.90;;;;;;4991829;28;20182;-69
2020/12/23 04:12:03;;;;;;;14.07;2.47;;;4.30;99.90;;;;;;5000295;28;20183;-70
2020/12/23 04:14:29;;;;;;;7.50;2.10;;;4.30;99.90;;;;;;5004962;28;20282;-69
2020/12/23 04:16:54;;;;;;;7.90;2.10;;;4.30;99.90;;;;;;4997017;28;20279;-69
2020/12/23 04:19:20;;;;;;;11.00;2.33;;;4.30;99.90;;;;;;5001742;28;20238;-69
2020/12/23 04:21:45;;;;;;;12.17;2.77;;;4.30;99.90;;;;;;5000822;28;20267;-69
2020/12/23 04:24:11;;;;;;;12.93;2.67;;;4.30;99.90;;;;;;5003979;28;20183;-69
2020/12/23 04:26:36;;;;;;;9.27;2.50;;;4.30;99.90;;;;;;5002139;28;20291;-69
2020/12/23 04:29:02;;;;;;;7.43;2.20;;;4.20;99.90;;;;;;4995196;28;20187;-69
2020/12/23 04:31:27;;;;;;;12.30;2.10;;;4.30;99.90;;;;;;5000639;28;20688;-70
2020/12/23 04:33:53;;;;;;;6.57;2.43;;;4.20;99.90;;;;;;4991990;28;20246;-69
2020/12/23 04:36:19;;;;;;;9.53;3.00;;;4.20;99.90;;;;;;4993941;28;20172;-69
2020/12/23 04:38:45;;;;;;;9.87;2.57;;;4.20;99.90;;;;;;4993274;28;20192;-69
2020/12/23 04:41:11;;;;;;;13.63;2.33;;;4.20;99.90;;;;;;4992258;28;20710;-69
2020/12/23 04:43:37;;;;;;;10.37;2.37;;;4.10;99.90;;;;;;4992716;28;20262;-69
2020/12/23 04:46:02;;;;;;;8.00;2.47;;;4.10;99.90;;;;;;4992005;28;20242;-69
2020/12/23 04:48:31;;;;;;;11.13;2.67;;;4.10;99.90;;;;;;4992477;28;20195;-70
2020/12/23 04:50:56;;;;;;;9.87;2.50;;;4.10;99.90;;;;;;4990737;28;20181;-69
2020/12/23 04:53:23;;;;;;;5.97;2.07;;;4.00;99.90;;;;;;4991472;28;20231;-68
2020/12/23 04:55:49;;;;;;;7.90;2.23;;;4.00;99.90;;;;;;4991257;28;20187;-68
2020/12/23 04:58:15;;;;;;;6.13;2.90;;;4.00;99.90;;;;;;4991135;28;20679;-68
2020/12/23 05:00:41;;;;;;;11.40;2.40;;;3.90;99.90;;;;;;4990442;28;20700;-70
2020/12/23 05:03:06;;;;;;;11.13;2.40;;;3.80;99.90;;;;;;4989967;28;20171;-69
2020/12/23 05:05:32;;;;;;;11.17;2.73;;;3.90;99.90;;;;;;4991252;28;20171;-69
2020/12/23 05:07:58;;;;;;;8.03;2.57;;;3.90;99.90;;;;;;4991500;28;20192;-68
2020/12/23 05:10:30;;;;;;;7.97;2.40;;;4.00;99.90;;;;;;4989852;28;20175;-67
2020/12/23 05:12:56;;;;;;;9.90;2.33;;;4.10;99.90;;;;;;4988841;28;20675;-67
2020/12/23 05:15:23;;;;;;;11.10;2.10;;;4.10;99.90;;;;;;4990998;28;20195;-68
2020/12/23 05:17:50;;;;;;;9.03;1.87;;;4.20;99.90;;;;;;4990952;28;20199;-68
2020/12/23 05:20:16;;;;;;;10.17;2.20;;;4.20;99.90;;;;;;4992343;28;20182;-68
2020/12/23 05:22:46;;;;;;;11.23;2.50;;;4.30;99.90;;;;;;4992023;28;20171;-69
2020/12/23 05:25:12;;;;;;;7.47;2.60;;;4.40;99.90;;;;;;4991269;28;20238;-69
2020/12/23 05:27:40;;;;;;;9.70;2.27;;;4.40;99.90;;;;;;5028632;23;20218;-66
2020/12/23 05:30:05;;;;;;;7.90;2.47;;;4.50;99.90;;;;;;5030247;28;20236;-67
2020/12/23 05:32:35;;;;;;;8.03;2.37;;;4.50;99.90;;;;;;5029976;28;20170;-67
2020/12/23 05:35:00;;;;;;;8.93;2.07;;;4.50;99.90;;;;;;5030023;28;20194;-67
2020/12/23 05:37:27;;;;;;;8.10;2.77;;;4.50;99.90;;;;;;5030061;28;20251;-67
2020/12/23 05:39:52;;;;;;;11.43;2.40;;;4.50;99.90;;;;;;5030282;28;20171;-67
2020/12/23 05:42:19;;;;;;;8.53;2.20;;;4.50;99.90;;;;;;5029542;28;20181;-67
2020/12/23 05:44:52;;;;;;;11.30;1.83;;;4.60;99.90;;;;;;5030010;28;20248;-67
2020/12/23 05:47:25;;;;;;;8.07;2.40;;;4.60;99.90;;;;;;5030424;28;20209;-67
2020/12/23 05:49:52;;;;;;;6.57;2.10;;;4.50;99.90;;;;;;5030372;28;20183;-67
2020/12/23 05:52:22;;;;;;;9.10;2.70;;;4.50;99.90;;;;;;5029815;28;20534;-67
2020/12/23 05:54:52;;;;;;;12.63;2.20;;;4.50;99.90;;;;;;5025858;28;20237;-67
2020/12/23 05:57:21;;;;;;;6.77;2.33;;;4.50;99.90;;;;;;5010244;28;20202;-68
2020/12/23 05:59:47;;;;;;;7.87;2.33;;;4.50;99.90;;;;;;5010354;28;20207;-68
2020/12/23 06:02:13;;;;;;;5.90;1.90;;;4.50;99.90;;;;;;5009486;28;20206;-69
2020/12/23 06:04:43;;;;;;;8.77;3.00;;;4.50;99.90;;;;;;5010440;28;20180;-69
2020/12/23 06:07:09;;;;;;;11.00;2.90;;;4.50;99.90;;;;;;5010311;28;20244;-67
2020/12/23 06:09:48;;;;;;;12.90;2.33;;;4.40;99.90;;;;;;5010203;28;20175;-67
2020/12/23 06:12:15;;;;;;;10.40;2.10;;;4.40;99.90;;;;;;5009121;28;20175;-67
2020/12/23 06:14:51;;;;;;;6.57;2.17;;;4.40;99.90;;;;;;5009904;28;20294;-69
2020/12/23 06:17:19;;;;;;;9.17;3.10;;;4.40;99.90;;;;;;5010115;28;20199;-68
2020/12/23 06:19:48;;;;;;;6.40;2.60;;;4.40;99.90;;;;;;5010375;28;20777;-68
2020/12/23 06:22:13;;;;;;;7.80;2.83;;;4.50;99.90;;;;;;5011706;28;20258;-68
2020/12/23 06:24:39;;;;;;;12.87;3.13;;;4.50;99.90;;;;;;5013641;28;20230;-68
2020/12/23 06:27:08;;;;;;;12.27;2.83;;;4.50;99.90;;;;;;5013559;28;20218;-67
2020/12/23 06:29:35;;;;;;;11.57;2.60;;;4.50;99.90;;;;;;5013564;28;20713;-67
2020/12/23 06:32:17;;;;;;;15.47;3.13;;;4.50;99.90;;;;;;5013133;28;20175;-67
2020/12/23 06:34:43;;;;;;;6.93;2.30;;;4.50;99.90;;;;;;5013575;28;20195;-67
2020/12/23 06:37:19;;;;;;;9.30;2.50;;;4.60;99.90;;;;;;5013385;28;20199;-67
2020/12/23 06:39:46;;;;;;;5.83;2.13;;;4.60;99.90;;;;;;5024439;28;20305;-67
2020/12/23 06:42:12;;;;;;;9.63;3.47;;;4.60;99.90;;;;;;5027161;28;20269;-66
2020/12/23 06:44:43;;;;;;;10.30;3.27;;;4.60;99.90;;;;;;5017716;28;20721;-66
2020/12/23 06:47:18;;;;;;;7.27;2.40;;;4.60;99.90;;;;;;5030959;28;20293;-66
2020/12/23 06:49:50;;;;;;;10.63;2.90;;;4.60;99.90;;;;;;5027505;28;20685;-66
2020/12/23 06:52:22;;;;;;;11.13;2.50;;;4.70;99.90;;;;;;5030159;28;20189;-62
2020/12/23 06:54:52;;;;;;;8.93;2.73;;;4.70;99.90;;;;;;5031963;28;20743;-61
2020/12/23 06:57:36;;;;;;;6.97;2.30;;;4.80;99.90;;;;;;5031038;28;20206;-61
2020/12/23 07:00:13;;;;;;;7.50;2.00;;;4.80;99.90;;;;;;5031558;28;20213;-61
2020/12/23 07:02:39;;;;;;;8.80;2.50;;;4.80;99.90;;;;;;5030516;28;20174;-62
2020/12/23 07:05:04;;;;;;;9.93;3.33;;;4.80;99.90;;;;;;5030763;28;20182;-62
2020/12/23 07:07:35;;;;;;;7.90;2.77;;;4.80;99.90;;;;;;5031410;28;20713;-62
2020/12/23 07:10:17;;;;;;;9.20;2.67;;;4.80;99.90;;;;;;5029732;28;20430;-62
2020/12/23 07:13:04;;;;;;;8.77;3.00;;;4.80;99.90;;;;;;5030522;28;20186;-62
2020/12/23 07:15:37;;;;;;;9.53;2.63;;;4.90;99.90;;;;;;5031603;28;20256;-62
2020/12/23 07:18:23;;;;;;;10.13;3.17;;;4.90;99.90;;;;;;5031622;28;20604;-62
2020/12/23 07:21:07;;;;;;;7.80;2.10;;;4.90;99.90;;;;;;5031195;28;20185;-62
2020/12/23 07:23:34;;;;;;;10.70;2.97;;;4.90;99.90;;;;;;5031412;28;20178;-62
2020/12/23 07:26:03;;;;;;;8.03;3.03;;;4.90;99.90;;;;;;5031828;28;20265;-66
2020/12/23 07:28:39;;;;;;;8.70;2.77;;;5.00;99.90;;;;;;5031848;28;20209;-62
2020/12/23 07:31:06;;;;;;;12.50;2.70;;;5.00;99.90;;;;;;5031243;28;20236;-62
2020/12/23 07:33:33;;;;;;;9.80;2.70;;;5.00;99.90;;;;;;5031987;28;20708;-61
2020/12/23 07:36:03;;;;;;;9.07;3.00;;;5.00;99.90;;;;;;5031739;28;20261;-62
2020/12/23 07:38:32;;;;;;;10.53;3.07;;;5.00;99.90;;;;;;5031939;28;20189;-62
2020/12/23 07:40:58;;;;;;;11.50;2.80;;;5.00;99.90;;;;;;5031190;28;20219;-62
2020/12/23 07:43:24;;;;;;;9.77;3.70;;;5.00;99.90;;;;;;5018608;28;20199;-62
2020/12/23 07:45:50;;;;;;;7.30;3.00;;;5.10;99.90;;;;;;5012006;28;20225;-62
2020/12/23 07:48:18;;;;;;;10.37;2.90;;;5.10;99.90;;;;;;5026107;28;20202;-60
2020/12/23 07:50:46;;;;;;;13.30;3.00;;;5.10;99.90;;;;;;5030912;28;20174;-62
2020/12/23 07:53:13;;;;;;;5.43;2.73;;;5.10;99.90;;;;;;5025976;28;20231;-64
2020/12/23 07:55:44;;;;;;;6.00;2.77;;;5.10;99.90;;;;;;5009789;28;20205;-62
2020/12/23 07:58:10;;;;;;;7.10;2.70;;;5.10;99.90;;;;;;5025034;28;20688;-62
2020/12/23 08:00:37;;;;;;;9.30;2.87;;;5.10;99.90;;;;;;5029643;28;20181;-61
2020/12/23 08:03:04;;;;;;;7.40;2.97;;;5.10;99.90;;;;;;5031219;28;20531;-67
2020/12/23 08:05:30;;;;;;;9.83;2.97;;;5.10;99.90;;;;;;5031562;28;20237;-61
2020/12/23 08:07:55;;;;;;;9.37;3.13;;;5.10;99.90;;;;;;5029521;28;20574;-61
2020/12/23 08:10:21;;;;;;;10.47;3.27;;;5.10;99.90;;;;;;5027642;28;20221;-61
2020/12/23 08:12:58;;;;;;;13.50;3.47;;;5.20;99.90;;;;;;5029101;28;20898;-62
2020/12/23 08:15:24;;;;;;;12.10;3.50;;;5.20;99.90;;;;;;5030648;28;20201;-65
2020/12/23 08:18:07;;;;;;;10.67;3.47;;;5.20;99.90;;;;;;5029598;28;20298;-65
2020/12/23 08:20:33;;;;;;;6.53;2.60;;;5.20;99.90;;;;;;5022086;28;20217;-66
2020/12/23 08:23:00;;;;;;;12.33;3.70;;;5.30;99.90;;;;;;5026802;28;20240;-66
2020/12/23 08:25:27;;;;;;;9.90;2.67;;;5.20;99.90;;;;;;5029663;28;20237;-65
2020/12/23 08:27:55;;;;;;;11.40;3.37;;;5.20;99.90;;;;;;5029490;28;20222;-66
2020/12/23 08:30:23;;;;;;;8.97;2.80;;;5.30;99.90;;;;;;5029212;28;20182;-66
2020/12/23 08:33:02;;;;;;;9.17;3.27;;;5.30;99.90;;;;;;5029161;28;20193;-64
2020/12/23 08:35:39;;;;;;;9.43;2.77;;;5.30;99.90;;;;;;5026912;28;20232;-64
2020/12/23 08:38:14;;;;;;;10.10;3.20;;;5.30;99.90;;;;;;5017174;28;20293;-65
2020/12/23 08:40:48;;;;;;;10.50;3.50;;;5.40;99.90;;;;;;5027417;28;20178;-64
2020/12/23 08:43:21;;;;;;;8.33;3.10;;;5.50;99.90;;;;;;5028074;28;20186;-65
2020/12/23 08:45:48;;;;;;;10.20;3.60;;;5.50;99.90;;;;;;5024079;28;20925;-61
2020/12/23 08:48:20;;;;;;;7.33;3.30;;;5.50;99.90;;;;;;5024550;28;20553;-61
2020/12/23 08:51:04;;;;;;;11.27;3.60;;;5.50;99.90;;;;;;5027050;28;20174;-61
2020/12/23 08:53:37;;;;;;;10.40;3.33;;;5.50;99.90;;;;;;5025456;28;20182;-62
2020/12/23 08:56:26;;;;;;;11.87;3.73;;;5.50;99.90;;;;;;5029176;28;20188;-60
2020/12/23 08:59:12;;;;;;;8.33;3.57;;;5.60;99.90;;;;;;5026960;28;20194;-62
2020/12/23 09:01:37;;;;;;;11.73;3.40;;;5.60;99.90;;;;;;5020415;28;20262;-62
2020/12/23 09:04:08;;;;;;;11.70;3.63;;;5.60;99.90;;;;;;5028674;28;20403;-61
2020/12/23 09:06:37;;;;;;;8.87;3.47;;;5.60;99.90;;;;;;5030145;28;20197;-61
2020/12/23 09:09:16;;;;;;;11.33;3.53;;;5.60;99.90;;;;;;5029449;28;20194;-62
2020/12/23 09:11:48;;;;;;;12.13;3.97;;;5.60;99.90;;;;;;5029014;28;20197;-61
2020/12/23 09:14:15;;;;;;;8.60;3.37;;;5.70;99.90;;;;;;5035371;28;20198;-61
2020/12/23 09:16:58;;;;;;;9.40;3.20;;;5.70;99.90;;;;;;5023286;28;20202;-62
2020/12/23 09:19:50;;;;;;;9.23;3.13;;;5.80;99.90;;;;;;5025228;28;20186;-63
2020/12/23 09:22:31;;;;;;;15.67;5.57;;;5.80;99.90;;;;;;5025400;28;20216;-62
2020/12/23 09:25:12;;;;;;;9.50;3.50;;;5.80;99.90;;;;;;5029569;28;20685;-62
2020/12/23 09:27:38;;;;;;;10.60;3.83;;;5.80;99.90;;;;;;5029535;28;20225;-62
2020/12/23 15:22:11;;;;;;;10.63;4.83;;;5.00;99.90;;;;;;5095430;27;20272;-67
2020/12/23 15:24:37;;;;;;;12.03;5.00;;;5.00;99.90;;;;;;5096780;28;20179;-67
2020/12/23 15:27:03;;;;;;;8.80;3.10;;;5.00;99.90;;;;;;5102701;28;20205;-67
2020/12/23 15:29:32;;;;;;;12.37;3.87;;;5.00;99.90;;;;;;5091082;28;20204;-67
2020/12/23 15:31:58;;;;;;;9.53;4.10;;;5.00;99.90;;;;;;5081846;28;20710;-67
2020/12/23 15:34:27;;;;;;;8.30;4.00;;;5.00;99.90;;;;;;5076754;28;20176;-67
2020/12/23 15:36:55;;;;;;;12.23;3.47;;;5.00;99.90;;;;;;5106776;22;20696;-74
2020/12/23 15:39:20;;;;;;;8.83;3.70;;;5.00;99.90;;;;;;5072609;28;20173;-74
2020/12/23 15:41:48;;;;;;;9.00;4.53;;;5.00;99.90;;;;;;5083616;28;20815;-73
2020/12/23 15:44:17;;;;;;;8.63;4.07;;;5.00;99.90;;;;;;5076668;28;20267;-74
2020/12/23 15:46:43;;;;;;;17.50;8.53;;;5.00;99.90;;;;;;5058552;28;20249;-75
2020/12/23 15:49:09;;;;;;;12.10;5.93;;;5.00;99.90;;;;;;5067342;28;20178;-60
2020/12/23 15:51:35;;;;;;;7.53;4.90;;;5.00;99.90;;;;;;5053718;28;20180;-59
2020/12/23 15:54:00;;;;;;;12.43;4.10;;;5.10;99.90;;;;;;5050089;28;20215;-64
2020/12/23 15:56:26;;;;;;;9.00;3.67;;;5.20;99.90;;;;;;5064569;28;20290;-64
2020/12/23 15:58:52;;;;;;;10.67;4.73;;;5.20;99.90;;;;;;5066224;28;20188;-64
2020/12/23 16:01:18;;;;;;;6.80;4.03;;;5.20;99.90;;;;;;5066236;28;20181;-64
2020/12/23 16:03:43;;;;;;;6.20;4.03;;;5.20;99.90;;;;;;5064491;28;20197;-64
2020/12/23 16:06:09;;;;;;;8.53;3.87;;;5.30;99.90;;;;;;5064520;28;20699;-65
2020/12/23 16:08:35;;;;;;;9.50;3.40;;;5.30;99.90;;;;;;5063505;28;20182;-60
2020/12/23 16:11:01;;;;;;;8.73;3.40;;;5.40;99.90;;;;;;5064105;28;20181;-60
2020/12/23 16:13:27;;;;;;;7.00;3.17;;;5.40;99.90;;;;;;5064141;28;20192;-61
2020/12/23 16:15:54;;;;;;;9.83;3.47;;;5.40;99.90;;;;;;5066511;28;20193;-60
2020/12/23 16:18:20;;;;;;;7.53;3.07;;;5.40;99.90;;;;;;5065105;28;20219;-59
2020/12/23 16:20:45;;;;;;;5.60;2.70;;;5.50;99.90;;;;;;5065984;28;20197;-61
2020/12/23 16:23:11;;;;;;;8.73;3.23;;;5.50;99.90;;;;;;5048690;28;20166;-58
2020/12/23 16:25:37;;;;;;;8.73;3.37;;;5.50;99.90;;;;;;5066458;28;20193;-59
2020/12/23 16:28:03;;;;;;;8.80;4.90;;;5.60;99.90;;;;;;5066588;28;20646;-59
2020/12/23 16:30:30;;;;;;;14.50;6.50;;;5.50;99.90;;;;;;5065474;28;20177;-59
2020/12/23 16:32:55;;;;;;;16.30;7.07;;;5.50;99.90;;;;;;5056617;28;20260;-59
2020/12/23 16:35:21;;;;;;;18.13;10.10;;;5.60;99.90;;;;;;5052774;28;20292;-59
2020/12/23 16:37:46;;;;;;;16.27;10.27;;;5.60;99.90;;;;;;5053220;28;20219;-59
2020/12/23 16:40:12;;;;;;;11.47;8.43;;;5.60;99.90;;;;;;5052621;28;20194;-59
2020/12/23 16:42:37;;;;;;;17.37;10.40;;;5.60;99.90;;;;;;5052355;28;20231;-59
2020/12/23 16:45:04;;;;;;;13.07;6.13;;;5.60;99.90;;;;;;5052575;28;20716;-59
2020/12/23 16:47:30;;;;;;;7.50;4.80;;;5.50;99.90;;;;;;5052704;28;20245;-60
2020/12/23 16:49:55;;;;;;;11.60;6.90;;;5.50;99.90;;;;;;5053089;28;20764;-59
2020/12/23 16:52:21;;;;;;;12.13;5.97;;;5.50;99.90;;;;;;5052127;28;20170;-60
2020/12/23 16:54:46;;;;;;;10.93;4.77;;;5.60;99.90;;;;;;5052697;28;20193;-60
2020/12/23 16:57:13;;;;;;;11.47;4.53;;;5.60;99.90;;;;;;5052676;28;20493;-60
2020/12/23 16:59:40;;;;;;;10.23;3.63;;;5.50;99.90;;;;;;5052618;28;20612;-60
2020/12/23 17:02:09;;;;;;;7.50;4.20;;;5.40;99.90;;;;;;5051864;28;20193;-59
2020/12/23 17:04:38;;;;;;;12.83;4.03;;;5.50;99.90;;;;;;5052650;28;20224;-61
2020/12/23 17:07:03;;;;;;;11.10;3.73;;;5.40;99.90;;;;;;5052295;28;20205;-60
2020/12/23 17:09:29;;;;;;;13.90;3.93;;;5.50;99.90;;;;;;5052631;28;20201;-59
2020/12/23 17:11:58;;;;;;;12.50;4.63;;;5.40;99.90;;;;;;5051868;28;20180;-59
2020/12/23 17:14:24;;;;;;;11.20;5.73;;;5.50;99.90;;;;;;5052370;28;20224;-59
2020/12/23 17:16:51;;;;;;;9.13;5.43;;;5.50;99.90;;;;;;5052370;28;20608;-61
2020/12/23 17:19:18;;;;;;;9.77;5.40;;;5.50;99.90;;;;;;5051033;28;20184;-60
2020/12/23 17:21:43;;;;;;;11.47;5.43;;;5.50;99.90;;;;;;5051438;28;20613;-60
2020/12/23 17:24:10;;;;;;;13.67;6.43;;;5.50;99.90;;;;;;5052175;28;20253;-60
2020/12/23 17:26:36;;;;;;;15.83;6.97;;;5.50;99.90;;;;;;5052337;28;20677;-61
2020/12/23 17:29:02;;;;;;;13.47;4.93;;;5.50;99.90;;;;;;5052249;28;20169;-60
2020/12/23 17:31:28;;;;;;;8.00;4.90;;;5.50;99.90;;;;;;5051477;28;20261;-60
2020/12/23 17:33:53;;;;;;;9.70;4.30;;;5.50;99.90;;;;;;5052224;28;20249;-59
2020/12/23 17:36:24;;;;;;;8.20;4.07;;;5.40;99.90;;;;;;5052154;28;20270;-59
2020/12/23 17:38:51;;;;;;;8.20;4.80;;;5.50;99.90;;;;;;5034420;28;20181;-60
2020/12/23 17:41:16;;;;;;;10.80;3.87;;;5.50;99.90;;;;;;5051559;28;20677;-60
2020/12/23 17:43:42;;;;;;;6.37;3.40;;;5.50;99.90;;;;;;5051089;28;20166;-60
2020/12/23 17:46:07;;;;;;;9.93;3.23;;;5.50;99.90;;;;;;5052280;28;20209;-60
2020/12/23 17:48:33;;;;;;;6.43;3.83;;;5.50;99.90;;;;;;5052371;28;20170;-61
2020/12/23 17:50:59;;;;;;;10.33;4.07;;;5.50;99.90;;;;;;5051642;28;20169;-57
2020/12/23 17:53:25;;;;;;;7.70;3.17;;;5.50;99.90;;;;;;5051818;28;20272;-59
2020/12/23 17:55:50;;;;;;;8.63;3.97;;;5.50;99.90;;;;;;5051543;28;20190;-73
2020/12/23 17:58:16;;;;;;;11.13;4.27;;;5.50;99.90;;;;;;5036243;28;20170;-72
2020/12/23 18:00:42;;;;;;;7.90;3.97;;;5.50;99.90;;;;;;5053591;28;20542;-74
2020/12/23 18:03:10;;;;;;;11.63;4.80;;;5.40;99.90;;;;;;5056936;28;20178;-75
2020/12/23 18:05:35;;;;;;;9.97;5.57;;;5.40;99.90;;;;;;5059610;28;20731;-75
2020/12/23 18:08:02;;;;;;;16.20;5.83;;;5.40;99.90;;;;;;5052622;28;20208;-73
2020/12/23 18:10:27;;;;;;;11.17;4.40;;;5.40;99.90;;;;;;5050444;28;20524;-73
2020/12/23 18:12:52;;;;;;;6.47;3.20;;;5.40;99.90;;;;;;5051695;28;20166;-73
2020/12/23 18:15:18;;;;;;;10.40;4.83;;;5.40;99.90;;;;;;5051988;28;20189;-72
2020/12/23 18:17:43;;;;;;;10.47;4.17;;;5.40;99.90;;;;;;5052299;28;20269;-72
2020/12/23 18:20:09;;;;;;;12.00;5.17;;;5.40;99.90;;;;;;5052541;28;20585;-74
2020/12/23 18:22:34;;;;;;;9.03;2.93;;;5.40;99.90;;;;;;5052108;28;20264;-72
2020/12/23 18:25:00;;;;;;;9.67;3.57;;;5.40;99.90;;;;;;5051630;28;20214;-73
2020/12/23 18:27:25;;;;;;;11.73;3.87;;;5.50;99.90;;;;;;5052445;28;20239;-73
2020/12/23 18:29:51;;;;;;;9.70;3.70;;;5.40;99.90;;;;;;5055102;28;20193;-73
2020/12/23 18:32:16;;;;;;;7.03;2.83;;;5.40;99.90;;;;;;5053598;28;20638;-73
2020/12/23 18:34:42;;;;;;;7.70;3.53;;;5.40;99.90;;;;;;5051624;28;20232;-74
2020/12/23 18:37:07;;;;;;;8.13;3.57;;;5.30;99.90;;;;;;5034893;28;20166;-73
2020/12/23 18:39:33;;;;;;;8.53;3.23;;;5.20;99.90;;;;;;5052499;28;20298;-73
2020/12/23 18:41:59;;;;;;;6.77;2.77;;;5.20;99.90;;;;;;5053028;28;20206;-74
2020/12/23 18:44:24;;;;;;;9.20;3.17;;;5.20;99.90;;;;;;5037086;28;20253;-72
2020/12/23 18:46:51;;;;;;;13.83;3.67;;;5.20;99.90;;;;;;5052160;28;20209;-69
2020/12/23 18:49:17;;;;;;;12.87;4.67;;;5.20;99.90;;;;;;5053758;28;20208;-71